Time;durP1;ratioP1;P1;durP2;ratioP2;P2;SDS_P1;SDS_P2;PMS_P1;PMS_P2;Temp;Humidity;BMP_temperature;BMP_pressure;BME280_temperature;BME280_humidity;BME280_pressure;Samples;Min_cycle;Max_cycle;Signal;HPM_P1;HPM_P2
2021/05/17 00:00:57;;;;;;;;;;;;;;;10.23;92.04;99189.16;2065268;28;20275;-87
2021/05/17 00:01:58;;;;;;;;;;;;;;;10.23;92.05;99183.94;2064981;28;19909;-85
2021/05/17 00:03:00;;;;;;;;;;;;;;;10.20;92.42;99189.28;2065074;28;19910;-86
2021/05/17 00:04:03;;;;;;;;;;;;;;;10.19;92.37;99190.22;2065467;28;19964;-86
2021/05/17 00:05:04;;;;;;;;;;;;;;;10.16;92.40;99188.59;2065763;28;20371;-87
2021/05/17 00:06:05;;;;;;;;;;;;;;;10.17;91.92;99185.06;2064463;28;19917;-87
2021/05/17 00:07:07;;;;;;;;;;;;;;;10.22;91.87;99180.53;2065872;28;20442;-86
2021/05/17 00:08:07;;;;;;;;;;;;;;;10.19;91.58;99192.84;2070341;28;19967;-87
2021/05/17 00:09:08;;;;;;;;;;;;;;;10.12;91.88;99181.84;2064926;28;20354;-87
2021/05/17 00:10:09;;;;;;;;;;;;;;;10.08;92.09;99182.88;2065197;28;20291;-88
2021/05/17 00:11:09;;;;;;;;;;;;;;;10.06;92.43;99184.69;2065462;28;19913;-88
2021/05/17 00:12:10;;;;;;;;;;;;;;;10.01;92.38;99184.91;2065028;28;19922;-87
2021/05/17 00:13:10;;;;;;;;;;;;;;;9.99;92.52;99193.69;2065347;28;19918;-83
2021/05/17 00:14:11;;;;;;;;;;;;;;;9.94;92.55;99184.31;2065217;28;19919;-85
2021/05/17 00:15:13;;;;;;;;;;;;;;;9.91;93.07;99176.66;2065121;28;19920;-86
2021/05/17 00:16:13;;;;;;;;;;;;;;;9.87;93.34;99187.28;2056994;28;19910;-87
2021/05/17 00:17:13;;;;;;;;;;;;;;;9.88;93.26;99183.78;2060469;28;20037;-87
2021/05/17 00:18:14;;;;;;;;;;;;;;;9.87;93.31;99182.91;2056422;28;19961;-84
2021/05/17 00:19:14;;;;;;;;;;;;;;;9.80;93.55;99187.53;2064821;28;19917;-84
2021/05/17 00:20:16;;;;;;;;;;;;;;;9.86;93.56;99186.44;2056187;28;19914;-84
2021/05/17 00:21:16;;;;;;;;;;;;;;;9.92;93.27;99182.72;2056753;28;19916;-83
2021/05/17 00:22:16;;;;;;;;;;;;;;;9.95;93.25;99187.78;2065116;28;19913;-84
2021/05/17 00:23:17;;;;;;;;;;;;;;;10.03;92.88;99179.66;2065100;28;19910;-85
2021/05/17 00:24:18;;;;;;;;;;;;;;;9.92;92.97;99178.38;2064927;28;20096;-84
2021/05/17 00:25:26;;;;;;;;;;;;;;;9.92;93.08;99186.19;2065598;28;19944;-88
2021/05/17 00:26:26;;;;;;;;;;;;;;;9.80;93.55;99176.28;2062606;28;20345;-90
2021/05/17 00:27:27;;;;;;;;;;;;;;;9.77;93.74;99179.03;2062269;28;19953;-89
2021/05/17 00:28:27;;;;;;;;;;;;;;;9.74;93.93;99179.16;2066434;28;20387;-89
2021/05/17 00:29:27;;;;;;;;;;;;;;;9.76;94.08;99179.94;2066375;28;19933;-89
2021/05/17 00:30:29;;;;;;;;;;;;;;;9.73;94.20;99178.31;2067451;28;19955;-88
2021/05/17 00:31:29;;;;;;;;;;;;;;;9.75;94.19;99178.22;2066171;28;19941;-90
2021/05/17 00:32:29;;;;;;;;;;;;;;;9.88;94.39;99178.56;2056955;28;19914;-87
2021/05/17 00:33:30;;;;;;;;;;;;;;;9.92;93.54;99180.97;2057201;28;20435;-88
2021/05/17 00:34:30;;;;;;;;;;;;;;;9.89;93.70;99175.88;2064770;28;19914;-86
2021/05/17 00:35:31;;;;;;;;;;;;;;;9.87;93.49;99176.88;2064862;28;19909;-89
2021/05/17 00:36:31;;;;;;;;;;;;;;;10.02;93.68;99175.34;2066218;28;19961;-88
2021/05/17 00:37:32;;;;;;;;;;;;;;;9.97;93.58;99184.19;2065006;28;19917;-88
2021/05/17 00:38:32;;;;;;;;;;;;;;;9.96;93.35;99184.28;2065990;28;20454;-89
2021/05/17 00:39:33;;;;;;;;;;;;;;;10.01;93.61;99178.88;2065405;28;20368;-88
2021/05/17 00:40:33;;;;;;;;;;;;;;;9.96;93.64;99184.28;2065320;28;19913;-87
2021/05/17 00:41:33;;;;;;;;;;;;;;;9.96;93.30;99187.72;2065519;28;19960;-88
2021/05/17 00:42:35;;;;;;;;;;;;;;;10.01;93.66;99181.47;2064980;28;19914;-87
2021/05/17 00:43:36;;;;;;;;;;;;;;;10.00;93.52;99180.59;2065628;28;19971;-84
2021/05/17 00:44:40;;;;;;;;;;;;;;;10.02;93.01;99180.56;2064844;28;19921;-86
2021/05/17 00:45:40;;;;;;;;;;;;;;;10.03;93.22;99184.84;2064924;28;20395;-86
2021/05/17 00:46:41;;;;;;;;;;;;;;;10.04;93.45;99186.56;2066157;28;19917;-88
2021/05/17 00:47:49;;;;;;;;;;;;;;;10.08;92.94;99186.34;2065002;28;19916;-87
2021/05/17 00:48:50;;;;;;;;;;;;;;;10.03;93.23;99188.28;2065355;28;19952;-84
2021/05/17 00:49:50;;;;;;;;;;;;;;;10.09;92.79;99182.81;2064744;28;19921;-85
2021/05/17 00:50:51;;;;;;;;;;;;;;;10.03;93.00;99183.09;2056144;28;19914;-83
2021/05/17 00:51:51;;;;;;;;;;;;;;;10.04;93.26;99186.56;2055853;28;19985;-82
2021/05/17 00:52:55;;;;;;;;;;;;;;;10.06;92.97;99184.69;2065166;28;19924;-82
2021/05/17 00:53:55;;;;;;;;;;;;;;;10.05;92.56;99194.28;2065015;28;20358;-83
2021/05/17 00:54:55;;;;;;;;;;;;;;;10.09;92.29;99184.56;2064823;28;19917;-83
2021/05/17 00:55:56;;;;;;;;;;;;;;;10.12;92.27;99194.88;2055724;28;19988;-84
2021/05/17 00:56:56;;;;;;;;;;;;;;;10.07;92.18;99189.84;2056357;28;19914;-84
2021/05/17 00:57:56;;;;;;;;;;;;;;;9.94;92.90;99188.69;2064583;28;20287;-83
2021/05/17 00:58:56;;;;;;;;;;;;;;;9.91;92.83;99187.09;2064966;28;19921;-84
2021/05/17 00:59:57;;;;;;;;;;;;;;;9.93;92.41;99187.88;2064752;28;19960;-85
2021/05/17 01:00:58;;;;;;;;;;;;;;;9.81;92.50;99188.41;2064876;28;19913;-87
2021/05/17 01:01:59;;;;;;;;;;;;;;;9.88;92.13;99187.22;2064960;28;19909;-85
2021/05/17 01:02:59;;;;;;;;;;;;;;;9.94;92.00;99180.91;2055753;28;19913;-86
2021/05/17 01:03:59;;;;;;;;;;;;;;;9.96;91.83;99181.69;2056209;28;19914;-86
2021/05/17 01:05:00;;;;;;;;;;;;;;;10.01;91.03;99184.06;2065329;28;19941;-87
2021/05/17 01:06:01;;;;;;;;;;;;;;;10.01;91.00;99184.91;2064638;28;19928;-89
2021/05/17 01:07:02;;;;;;;;;;;;;;;10.04;90.62;99191.75;2065040;28;20579;-84
2021/05/17 01:08:03;;;;;;;;;;;;;;;10.07;90.48;99196.81;2065001;28;19924;-85
2021/05/17 01:09:03;;;;;;;;;;;;;;;10.07;90.03;99192.47;2055739;28;20356;-79
2021/05/17 01:10:04;;;;;;;;;;;;;;;10.09;89.72;99189.78;2055724;28;19997;-80
2021/05/17 01:11:05;;;;;;;;;;;;;;;10.15;89.63;99193.88;2064125;28;19917;-80
2021/05/17 01:12:06;;;;;;;;;;;;;;;10.16;89.12;99191.19;2064361;28;19929;-82
2021/05/17 01:13:06;;;;;;;;;;;;;;;10.13;88.99;99189.56;2064022;28;19936;-80
2021/05/17 01:14:07;;;;;;;;;;;;;;;10.22;88.98;99190.06;2064361;28;19960;-81
2021/05/17 01:15:08;;;;;;;;;;;;;;;10.24;88.85;99186.47;2071836;28;20478;-81
2021/05/17 01:16:08;;;;;;;;;;;;;;;10.24;88.76;99186.47;2073201;28;19956;-80
2021/05/17 01:17:10;;;;;;;;;;;;;;;10.21;88.80;99191.84;2054110;28;19917;-80
2021/05/17 01:18:10;;;;;;;;;;;;;;;10.24;88.67;99188.25;2050643;28;20027;-80
2021/05/17 01:19:12;;;;;;;;;;;;;;;10.23;88.56;99190.03;2059514;28;19953;-80
2021/05/17 01:20:15;;;;;;;;;;;;;;;10.21;88.82;99191.84;2064500;28;19914;-79
2021/05/17 01:21:17;;;;;;;;;;;;;;;10.21;88.80;99194.44;2061845;28;20430;-78
2021/05/17 01:22:22;;;;;;;;;;;;;;;10.30;88.14;99195.78;2064471;28;20320;-79
2021/05/17 01:24:23;;;;;;;;;;;;;;;10.31;88.15;99196.63;2066921;28;20058;-82
2021/05/17 01:25:25;;;;;;;;;;;;;;;10.26;88.13;99189.03;2060237;28;19949;-84
2021/05/17 01:26:26;;;;;;;;;;;;;;;10.22;88.31;99190.94;2064434;28;20587;-83
2021/05/17 01:27:26;;;;;;;;;;;;;;;10.25;88.14;99198.59;2065178;28;19921;-84
2021/05/17 01:28:27;;;;;;;;;;;;;;;10.32;87.89;99190.50;2055464;28;19914;-83
2021/05/17 01:29:28;;;;;;;;;;;;;;;10.23;88.17;99195.22;2055467;28;19913;-81
2021/05/17 01:30:28;;;;;;;;;;;;;;;10.25;88.17;99192.56;2064167;28;19990;-84
2021/05/17 01:31:29;;;;;;;;;;;;;;;10.31;87.66;99194.88;2064036;28;19972;-79
2021/05/17 01:32:30;;;;;;;;;;;;;;;10.27;87.74;99190.72;2067064;28;19914;-86
2021/05/17 01:33:34;;;;;;;;;;;;;;;10.23;88.21;99192.63;2064355;28;19913;-87
2021/05/17 01:34:35;;;;;;;;;;;;;;;10.24;88.15;99194.28;2063734;28;19913;-86
2021/05/17 01:35:37;;;;;;;;;;;;;;;10.22;88.22;99198.75;2064787;28;20376;-86
2021/05/17 01:36:37;;;;;;;;;;;;;;;10.25;88.32;99192.56;2071747;28;19909;-86
2021/05/17 01:37:38;;;;;;;;;;;;;;;10.25;88.28;99195.97;2072031;28;19920;-86
2021/05/17 01:38:42;;;;;;;;;;;;;;;10.22;88.22;99197.88;2064420;28;19913;-85
2021/05/17 01:39:42;;;;;;;;;;;;;;;10.23;88.15;99194.38;2068937;28;19917;-86
2021/05/17 01:40:43;;;;;;;;;;;;;;;10.26;88.28;99189.88;2064774;28;19914;-86
2021/05/17 01:41:44;;;;;;;;;;;;;;;10.24;88.16;99194.28;2064356;28;19914;-84
2021/05/17 01:42:45;;;;;;;;;;;;;;;10.24;88.43;99196.91;2064039;28;19932;-86
2021/05/17 01:43:46;;;;;;;;;;;;;;;10.24;88.26;99196.91;2055647;28;20569;-86
2021/05/17 01:44:47;;;;;;;;;;;;;;;10.29;87.69;99188.88;2055710;28;20008;-86
2021/05/17 01:45:48;;;;;;;;;;;;;;;10.33;87.65;99190.44;2065553;28;19933;-87
2021/05/17 01:46:49;;;;;;;;;;;;;;;10.26;87.79;99195.06;2064638;28;20291;-85
2021/05/17 01:47:49;;;;;;;;;;;;;;;10.23;88.19;99195.22;2064903;28;19913;-85
2021/05/17 01:48:50;;;;;;;;;;;;;;;10.26;87.75;99196.84;2064233;28;19914;-86
2021/05/17 01:49:50;;;;;;;;;;;;;;;10.28;88.14;99201.06;2064423;28;19913;-86
2021/05/17 01:50:51;;;;;;;;;;;;;;;10.31;87.38;99199.25;2056296;28;19920;-86
2021/05/17 01:51:52;;;;;;;;;;;;;;;10.26;87.74;99200.28;2055853;28;19961;-86
2021/05/17 01:52:52;;;;;;;;;;;;;;;10.25;87.94;99203.78;2055637;28;19925;-86
2021/05/17 01:53:53;;;;;;;;;;;;;;;10.26;88.02;99202.88;2054797;28;19953;-86
2021/05/17 01:54:54;;;;;;;;;;;;;;;10.26;88.49;99197.69;2076140;23;20054;-84
2021/05/17 01:55:54;;;;;;;;;;;;;;;10.30;88.29;99200.16;2047031;29;19969;-84
2021/05/17 01:56:55;;;;;;;;;;;;;;;10.22;88.81;99200.50;2050766;28;20048;-84
2021/05/17 01:58:09;;;;;;;;;;;;;;;10.33;88.67;99200.03;2050977;28;20246;-85
2021/05/17 01:59:09;;;;;;;;;;;;;;;10.23;88.88;99200.44;2053319;28;20304;-85
2021/05/17 02:00:11;;;;;;;;;;;;;;;10.20;89.27;99205.78;2050975;28;19920;-84
2021/05/17 02:01:12;;;;;;;;;;;;;;;10.25;89.24;99200.38;2050582;28;20428;-84
2021/05/17 02:02:13;;;;;;;;;;;;;;;10.26;88.62;99208.09;2051317;28;19919;-84
2021/05/17 02:03:13;;;;;;;;;;;;;;;10.19;88.67;99198.03;2053319;28;20265;-84
2021/05/17 02:04:13;;;;;;;;;;;;;;;10.18;89.07;99199.78;2053053;28;20293;-84
2021/05/17 02:05:14;;;;;;;;;;;;;;;10.16;88.99;99199.00;2059443;28;19949;-84
2021/05/17 02:06:15;;;;;;;;;;;;;;;10.17;89.23;99205.91;2060281;28;19918;-84
2021/05/17 02:07:15;;;;;;;;;;;;;;;10.16;89.25;99199.00;2061250;28;19914;-84
2021/05/17 02:08:19;;;;;;;;;;;;;;;10.23;88.85;99196.97;2061593;28;19914;-85
2021/05/17 02:09:19;;;;;;;;;;;;;;;10.11;88.77;99204.41;2057111;28;20000;-84
2021/05/17 02:10:20;;;;;;;;;;;;;;;10.22;88.64;99196.16;2059113;28;20202;-85
2021/05/17 02:11:21;;;;;;;;;;;;;;;10.16;88.91;99198.16;2059113;28;19952;-84
2021/05/17 02:12:23;;;;;;;;;;;;;;;10.12;89.03;99202.66;2058293;28;19914;-84
2021/05/17 02:13:24;;;;;;;;;;;;;;;10.17;88.75;99200.69;2059381;28;19972;-85
2021/05/17 02:14:25;;;;;;;;;;;;;;;10.16;88.68;99201.59;2058479;28;20304;-84
2021/05/17 02:15:25;;;;;;;;;;;;;;;10.16;88.73;99205.97;2059189;28;19953;-85
2021/05/17 02:16:25;;;;;;;;;;;;;;;10.10;89.01;99209.69;2063791;28;19917;-85
2021/05/17 02:17:26;;;;;;;;;;;;;;;10.08;89.14;99195.91;2058173;28;19909;-84
2021/05/17 02:18:26;;;;;;;;;;;;;;;10.06;88.87;99202.94;2059555;28;20276;-84
2021/05/17 02:19:26;;;;;;;;;;;;;;;10.09;88.93;99208.00;2057333;28;19921;-85
2021/05/17 02:20:29;;;;;;;;;;;;;;;10.06;88.86;99201.19;2059757;28;19914;-84
2021/05/17 02:21:29;;;;;;;;;;;;;;;10.11;88.83;99196.59;2060510;28;19914;-84
2021/05/17 02:22:29;;;;;;;;;;;;;;;10.04;89.19;99194.38;2061168;28;20213;-83
2021/05/17 02:23:30;;;;;;;;;;;;;;;10.07;88.59;99197.66;2060615;28;19918;-85
2021/05/17 02:24:31;;;;;;;;;;;;;;;10.06;88.84;99198.59;2060351;28;19909;-84
2021/05/17 02:25:32;;;;;;;;;;;;;;;10.10;88.49;99202.72;2062904;28;19914;-84
2021/05/17 02:26:32;;;;;;;;;;;;;;;10.07;88.97;99204.63;2061046;28;19991;-84
2021/05/17 02:27:32;;;;;;;;;;;;;;;10.03;88.89;99206.50;2063656;28;19918;-84
2021/05/17 02:28:35;;;;;;;;;;;;;;;10.10;88.50;99199.28;2058758;28;19918;-84
2021/05/17 02:29:36;;;;;;;;;;;;;;;10.08;88.51;99199.38;2057869;28;19934;-84
2021/05/17 02:30:37;;;;;;;;;;;;;;;10.09;88.23;99198.41;2066787;28;19964;-84
2021/05/17 02:31:37;;;;;;;;;;;;;;;10.15;87.69;99199.09;2067196;28;20064;-84
2021/05/17 02:32:38;;;;;;;;;;;;;;;10.07;88.10;99199.41;2054527;28;20304;-84
2021/05/17 02:33:38;;;;;;;;;;;;;;;10.03;88.12;99198.72;2062256;28;19921;-83
2021/05/17 02:34:38;;;;;;;;;;;;;;;10.11;88.20;99195.78;2060101;28;19960;-85
2021/05/17 02:35:39;;;;;;;;;;;;;;;10.11;87.79;99206.19;2060559;28;19917;-84
2021/05/17 02:36:39;;;;;;;;;;;;;;;10.17;87.34;99197.25;2063083;28;19913;-84
2021/05/17 02:37:40;;;;;;;;;;;;;;;10.12;87.41;99187.88;2059559;28;20384;-84
2021/05/17 02:38:40;;;;;;;;;;;;;;;10.08;87.66;99195.91;2059368;28;20016;-84
2021/05/17 02:39:40;;;;;;;;;;;;;;;10.09;87.62;99188.00;2061028;28;19957;-85
2021/05/17 02:40:41;;;;;;;;;;;;;;;10.01;88.10;99200.53;2061206;28;19921;-84
2021/05/17 02:41:42;;;;;;;;;;;;;;;10.06;87.77;99197.72;2057772;28;19910;-84
2021/05/17 02:42:43;;;;;;;;;;;;;;;10.07;87.52;99191.59;2058717;28;19914;-84
2021/05/17 02:43:44;;;;;;;;;;;;;;;10.03;87.42;99203.09;2062689;28;20303;-84
2021/05/17 02:44:45;;;;;;;;;;;;;;;10.00;88.03;99198.84;2062126;28;19914;-84
2021/05/17 02:45:45;;;;;;;;;;;;;;;10.01;88.17;99204.91;2059865;28;19953;-84
2021/05/17 02:46:45;;;;;;;;;;;;;;;10.00;88.21;99203.22;2054919;28;19968;-84
2021/05/17 02:47:46;;;;;;;;;;;;;;;9.96;88.44;99202.50;2055171;28;19972;-83
2021/05/17 02:48:46;;;;;;;;;;;;;;;10.10;88.28;99199.28;2061475;28;20000;-84
2021/05/17 02:49:48;;;;;;;;;;;;;;;9.99;88.33;99204.13;2062362;28;19916;-85
2021/05/17 02:50:48;;;;;;;;;;;;;;;9.98;88.42;99205.88;2058317;28;19920;-84
2021/05/17 02:51:51;;;;;;;;;;;;;;;10.03;88.33;99208.28;2060632;28;19921;-84
2021/05/17 02:52:51;;;;;;;;;;;;;;;10.04;88.54;99207.38;2059009;28;20284;-84
2021/05/17 02:54:10;;;;;;;;;;;;;;;10.11;87.98;99207.03;2050018;28;20501;-84
2021/05/17 02:55:10;;;;;;;;;;;;;;;10.10;88.20;99209.69;2056031;28;20060;-84
2021/05/17 02:56:12;;;;;;;;;;;;;;;10.07;88.23;99209.81;2060078;28;20434;-84
2021/05/17 02:57:13;;;;;;;;;;;;;;;10.05;88.33;99207.31;2050145;28;19936;-84
2021/05/17 02:58:16;;;;;;;;;;;;;;;10.07;88.29;99208.09;2051182;28;20049;-85
2021/05/17 02:59:22;;;;;;;;;;;;;;;10.12;87.87;99202.66;2059692;28;19913;-84
2021/05/17 03:00:22;;;;;;;;;;;;;;;10.09;88.25;99210.59;2063292;28;20466;-83
2021/05/17 03:01:27;;;;;;;;;;;;;;;10.07;87.92;99215.91;2063753;28;19937;-84
2021/05/17 03:02:29;;;;;;;;;;;;;;;10.03;88.07;99213.50;2064184;28;19920;-84
2021/05/17 03:03:31;;;;;;;;;;;;;;;10.02;88.18;99217.00;2063119;28;19992;-83
2021/05/17 03:04:32;;;;;;;;;;;;;;;10.07;88.19;99217.63;2063059;28;19925;-83
2021/05/17 03:05:40;;;;;;;;;;;;;;;10.04;88.19;99217.78;2062428;28;19920;-84
2021/05/17 03:06:41;;;;;;;;;;;;;;;9.99;88.68;99228.41;2064903;28;19917;-84
2021/05/17 03:07:43;;;;;;;;;;;;;;;10.08;88.47;99221.94;2072687;28;20042;-84
2021/05/17 03:08:55;;;;;;;;;;;;;;;10.02;88.48;99223.03;2071384;28;19924;-84
2021/05/17 03:09:55;;;;;;;;;;;;;;;10.02;88.94;99222.22;2061734;28;19956;-83
2021/05/17 03:10:57;;;;;;;;;;;;;;;10.01;89.01;99233.53;2064105;28;19941;-83
2021/05/17 03:12:00;;;;;;;;;;;;;;;10.02;89.23;99225.66;2063967;28;19914;-84
2021/05/17 03:13:06;;;;;;;;;;;;;;;10.02;89.17;99224.81;2057704;28;19913;-84
2021/05/17 03:14:10;;;;;;;;;;;;;;;9.94;89.45;99225.97;2064019;28;20373;-83
2021/05/17 03:15:12;;;;;;;;;;;;;;;9.94;89.53;99231.19;2064092;28;19909;-85
2021/05/17 03:16:13;;;;;;;;;;;;;;;9.89;89.97;99230.53;2063663;28;19918;-84
2021/05/17 03:17:14;;;;;;;;;;;;;;;9.95;89.85;99238.06;2063862;28;20376;-84
2021/05/17 03:18:15;;;;;;;;;;;;;;;9.93;90.19;99234.72;2063986;28;19921;-84
2021/05/17 03:19:17;;;;;;;;;;;;;;;9.91;90.65;99230.47;2063875;28;19945;-84
2021/05/17 03:20:19;;;;;;;;;;;;;;;9.83;90.69;99238.63;2063791;28;19968;-84
2021/05/17 03:21:20;;;;;;;;;;;;;;;9.84;90.90;99240.31;2063662;28;19913;-84
2021/05/17 03:22:22;;;;;;;;;;;;;;;9.79;91.43;99242.25;2055038;28;19914;-84
2021/05/17 03:23:23;;;;;;;;;;;;;;;9.76;91.99;99239.78;2054898;28;19918;-84
2021/05/17 03:24:24;;;;;;;;;;;;;;;9.81;92.12;99240.44;2054930;28;19925;-85
2021/05/17 03:25:27;;;;;;;;;;;;;;;9.76;92.39;99242.38;2055175;28;19910;-85
2021/05/17 03:26:27;;;;;;;;;;;;;;;9.73;93.05;99245.13;2057468;28;19914;-85
2021/05/17 03:27:28;;;;;;;;;;;;;;;9.74;93.32;99247.66;2063798;28;19909;-85
2021/05/17 03:28:28;;;;;;;;;;;;;;;9.77;93.66;99244.06;2054892;28;20005;-84
2021/05/17 03:29:28;;;;;;;;;;;;;;;9.71;94.15;99244.34;2055183;28;20201;-84
2021/05/17 03:30:29;;;;;;;;;;;;;;;9.73;93.95;99252.94;2071171;28;19914;-85
2021/05/17 03:31:29;;;;;;;;;;;;;;;9.65;94.53;99246.28;2071159;28;19913;-85
2021/05/17 03:32:29;;;;;;;;;;;;;;;9.65;94.71;99253.25;2057703;28;19952;-85
2021/05/17 03:33:29;;;;;;;;;;;;;;;9.65;94.98;99243.66;2055083;28;20460;-85
2021/05/17 03:34:29;;;;;;;;;;;;;;;9.65;95.42;99251.47;2056545;28;19941;-85
2021/05/17 03:35:30;;;;;;;;;;;;;;;9.65;95.60;99248.88;2063233;28;20024;-84
2021/05/17 03:36:30;;;;;;;;;;;;;;;9.63;95.70;99252.47;2065271;28;19940;-84
2021/05/17 03:37:30;;;;;;;;;;;;;;;9.66;95.52;99250.56;2056519;28;19918;-85
2021/05/17 03:38:31;;;;;;;;;;;;;;;9.65;95.66;99243.66;2056527;28;20396;-84
2021/05/17 03:39:31;;;;;;;;;;;;;;;9.57;95.96;99247.53;2063513;28;19914;-85
2021/05/17 03:40:32;;;;;;;;;;;;;;;9.55;96.57;99254.53;2057010;28;20470;-84
2021/05/17 03:41:32;;;;;;;;;;;;;;;9.52;96.35;99252.06;2058223;28;19980;-85
2021/05/17 03:42:32;;;;;;;;;;;;;;;9.52;96.34;99244.25;2064182;28;19917;-85
2021/05/17 03:43:32;;;;;;;;;;;;;;;9.52;96.17;99245.13;2065047;28;19924;-85
2021/05/17 03:44:33;;;;;;;;;;;;;;;9.54;95.81;99242.44;2065017;28;19932;-85
2021/05/17 03:45:33;;;;;;;;;;;;;;;9.56;95.26;99236.25;2064713;28;19924;-85
2021/05/17 03:46:33;;;;;;;;;;;;;;;9.55;94.81;99238.94;2064476;28;19921;-85
2021/05/17 03:47:33;;;;;;;;;;;;;;;9.53;93.95;99241.59;2065744;28;20416;-85
2021/05/17 03:48:40;;;;;;;;;;;;;;;9.55;93.56;99244.13;2065251;28;19913;-85
2021/05/17 03:49:41;;;;;;;;;;;;;;;9.53;93.94;99245.94;2067873;28;20084;-83
2021/05/17 03:50:41;;;;;;;;;;;;;;;9.57;94.09;99247.53;2065068;28;20324;-85
2021/05/17 03:51:41;;;;;;;;;;;;;;;9.54;94.17;99245.91;2065366;28;19914;-89
2021/05/17 03:52:42;;;;;;;;;;;;;;;9.54;94.86;99247.63;2064590;28;19913;-84
2021/05/17 03:53:42;;;;;;;;;;;;;;;9.52;95.44;99250.31;2064987;28;19987;-85
2021/05/17 03:54:42;;;;;;;;;;;;;;;9.56;95.29;99251.88;2064699;28;19975;-85
2021/05/17 03:55:42;;;;;;;;;;;;;;;9.62;95.14;99251.63;2065063;28;19940;-85
2021/05/17 03:56:43;;;;;;;;;;;;;;;9.55;95.57;99251.94;2064891;28;19918;-85
2021/05/17 03:57:43;;;;;;;;;;;;;;;9.61;95.71;99249.94;2072519;28;19913;-85
2021/05/17 03:58:43;;;;;;;;;;;;;;;9.57;95.83;99253.56;2072719;28;19914;-86
2021/05/17 03:59:45;;;;;;;;;;;;;;;9.59;96.29;99256.94;2060711;28;19909;-85
2021/05/17 04:00:45;;;;;;;;;;;;;;;9.56;96.55;99245.81;2059515;28;19914;-85
2021/05/17 04:01:46;;;;;;;;;;;;;;;9.58;96.67;99252.66;2064846;28;20008;-84
2021/05/17 04:02:47;;;;;;;;;;;;;;;9.57;96.79;99253.56;2064789;28;19914;-84
2021/05/17 04:03:47;;;;;;;;;;;;;;;9.60;96.37;99257.81;2064618;28;20354;-85
2021/05/17 04:14:16;;;;;;;;;;;;;;;9.66;95.54;99267.94;2056379;28;19921;-85
2021/05/17 04:15:16;;;;;;;;;;;;;;;9.68;95.53;99267.88;2057081;28;19913;-85
2021/05/17 04:16:16;;;;;;;;;;;;;;;9.76;95.14;99273.59;2052382;28;19957;-84
2021/05/17 04:17:17;;;;;;;;;;;;;;;9.73;94.84;99265.94;2065011;28;19948;-84
2021/05/17 04:18:17;;;;;;;;;;;;;;;9.72;94.85;99267.69;2064856;28;19918;-84
2021/05/17 04:19:19;;;;;;;;;;;;;;;9.68;94.80;99275.69;2065162;28;19963;-85
2021/05/17 04:20:19;;;;;;;;;;;;;;;9.65;94.89;99272.28;2064690;28;19921;-85
2021/05/17 04:21:20;;;;;;;;;;;;;;;9.65;95.06;99276.66;2065078;28;19935;-84
2021/05/17 04:22:20;;;;;;;;;;;;;;;9.64;95.33;99280.16;2064813;28;20291;-85
2021/05/17 04:23:24;;;;;;;;;;;;;;;9.64;95.37;99273.22;2064647;28;20383;-84
2021/05/17 04:24:24;;;;;;;;;;;;;;;9.66;95.23;99274.00;2064710;28;19917;-84
2021/05/17 04:25:24;;;;;;;;;;;;;;;9.68;95.31;99278.28;2056091;28;20364;-85
2021/05/17 04:26:25;;;;;;;;;;;;;;;9.76;95.05;99271.00;2056069;28;19914;-85
2021/05/17 04:27:25;;;;;;;;;;;;;;;9.69;95.11;99269.56;2058344;28;19914;-85
2021/05/17 04:28:25;;;;;;;;;;;;;;;9.69;95.24;99266.97;2064781;28;19914;-85
2021/05/17 04:29:25;;;;;;;;;;;;;;;9.64;95.15;99270.63;2064938;28;19909;-85
2021/05/17 04:30:25;;;;;;;;;;;;;;;9.72;95.20;99274.66;2064766;28;20375;-85
2021/05/17 04:31:26;;;;;;;;;;;;;;;9.79;94.65;99274.34;2065051;28;20362;-85
2021/05/17 04:32:26;;;;;;;;;;;;;;;9.78;94.15;99271.78;2064481;28;19916;-86
2021/05/17 04:33:26;;;;;;;;;;;;;;;9.84;94.04;99275.91;2065265;28;19924;-86
2021/05/17 04:34:29;;;;;;;;;;;;;;;9.86;94.30;99277.50;2072057;28;20004;-85
2021/05/17 04:35:29;;;;;;;;;;;;;;;9.95;93.97;99273.69;2074014;28;19927;-85
2021/05/17 04:36:31;;;;;;;;;;;;;;;9.93;93.75;99272.91;2056120;28;19996;-85
2021/05/17 04:37:31;;;;;;;;;;;;;;;10.02;93.38;99269.91;2064063;28;19929;-85
2021/05/17 04:38:31;;;;;;;;;;;;;;;9.99;93.63;99272.66;2070610;28;19909;-85
2021/05/17 04:39:32;;;;;;;;;;;;;;;9.94;93.81;99272.81;2064982;28;20380;-85
2021/05/17 04:40:32;;;;;;;;;;;;;;;10.04;93.55;99277.66;2064701;28;20130;-84
2021/05/17 04:41:32;;;;;;;;;;;;;;;10.04;92.96;99273.28;2064916;28;19949;-85
2021/05/17 04:42:32;;;;;;;;;;;;;;;10.08;93.49;99281.81;2064649;28;19967;-85
2021/05/17 04:43:32;;;;;;;;;;;;;;;10.00;93.37;99282.13;2064440;28;19945;-85
2021/05/17 04:44:33;;;;;;;;;;;;;;;9.96;93.24;99281.41;2065762;28;19944;-85
2021/05/17 04:45:33;;;;;;;;;;;;;;;10.04;92.85;99280.28;2065156;28;20356;-85
2021/05/17 04:46:33;;;;;;;;;;;;;;;10.02;92.91;99276.88;2064299;28;19937;-85
2021/05/17 04:47:34;;;;;;;;;;;;;;;10.05;92.93;99282.78;2065066;28;19952;-84
2021/05/17 04:48:34;;;;;;;;;;;;;;;10.16;92.72;99284.94;2065165;28;19952;-85
2021/05/17 04:49:34;;;;;;;;;;;;;;;10.29;91.81;99285.22;2064980;28;19917;-86
2021/05/17 04:50:35;;;;;;;;;;;;;;;10.52;90.74;99281.66;2065278;28;19943;-85
2021/05/17 04:51:35;;;;;;;;;;;;;;;10.70;89.58;99286.97;2064857;28;19924;-85
2021/05/17 04:52:35;;;;;;;;;;;;;;;10.82;89.32;99281.19;2065750;28;19917;-85
2021/05/17 04:53:35;;;;;;;;;;;;;;;10.84;89.11;99283.72;2064870;28;20405;-85
2021/05/17 04:54:36;;;;;;;;;;;;;;;10.90;88.93;99286.03;2065456;28;19917;-85
2021/05/17 04:55:36;;;;;;;;;;;;;;;10.99;89.08;99290.81;2065243;28;19914;-85
2021/05/17 04:56:36;;;;;;;;;;;;;;;11.02;88.33;99287.25;2065243;28;19960;-85
2021/05/17 04:57:36;;;;;;;;;;;;;;;11.06;87.45;99283.56;2065545;28;19913;-85
2021/05/17 04:58:37;;;;;;;;;;;;;;;11.14;87.17;99286.66;2065372;28;19913;-85
2021/05/17 04:59:37;;;;;;;;;;;;;;;11.18;86.21;99293.41;2064947;28;19914;-86
2021/05/17 05:00:38;;;;;;;;;;;;;;;11.29;86.35;99290.28;2064934;28;19913;-86
2021/05/17 05:01:38;;;;;;;;;;;;;;;11.34;85.71;99282.25;2064636;28;20402;-85
2021/05/17 05:02:39;;;;;;;;;;;;;;;11.46;85.21;99292.09;2064911;28;19914;-85
2021/05/17 05:03:39;;;;;;;;;;;;;;;11.64;84.54;99292.09;2056062;28;20300;-84
2021/05/17 05:04:39;;;;;;;;;;;;;;;11.77;83.59;99293.19;2056238;28;20320;-84
2021/05/17 05:05:39;;;;;;;;;;;;;;;12.17;81.34;99297.38;2064166;28;19913;-85
2021/05/17 05:06:40;;;;;;;;;;;;;;;13.40;76.91;99295.16;2056022;28;19941;-84
2021/05/17 05:07:40;;;;;;;;;;;;;;;13.18;76.50;99290.22;2048611;28;20278;-85
2021/05/17 05:08:40;;;;;;;;;;;;;;;13.22;76.27;99294.38;2056252;28;20424;-85
2021/05/17 05:09:41;;;;;;;;;;;;;;;13.27;76.29;99299.34;2064365;28;19921;-85
2021/05/17 05:10:41;;;;;;;;;;;;;;;13.45;74.82;99295.72;2072024;28;19913;-84
2021/05/17 05:11:42;;;;;;;;;;;;;;;13.80;73.66;99297.25;2071902;28;19913;-84
2021/05/17 05:12:42;;;;;;;;;;;;;;;14.23;71.37;99299.13;2055988;28;19914;-85
2021/05/17 05:13:42;;;;;;;;;;;;;;;16.32;65.18;99301.63;2055659;28;20045;-84
2021/05/17 05:14:42;;;;;;;;;;;;;;;16.26;63.64;99297.63;2064236;28;20733;-84
2021/05/17 05:15:42;;;;;;;;;;;;;;;16.58;61.79;99296.38;2064741;28;20642;-85
2021/05/17 05:16:43;;;;;;;;;;;;;;;15.61;63.51;99303.72;2064568;28;20646;-84
2021/05/17 05:17:43;;;;;;;;;;;;;;;15.10;65.90;99306.03;2064680;28;20027;-84
2021/05/17 05:18:43;;;;;;;;;;;;;;;15.07;66.36;99308.00;2064222;28;20470;-84
2021/05/17 05:19:43;;;;;;;;;;;;;;;14.35;68.24;99305.41;2064700;28;19920;-84
2021/05/17 05:20:43;;;;;;;;;;;;;;;14.06;69.74;99315.88;2064424;28;19945;-84
2021/05/17 05:21:44;;;;;;;;;;;;;;;13.88;69.95;99310.75;2066805;28;19918;-85
2021/05/17 05:22:44;;;;;;;;;;;;;;;13.98;70.03;99306.66;2064309;28;19909;-83
2021/05/17 05:23:45;;;;;;;;;;;;;;;13.96;70.06;99307.69;2064546;28;19965;-84
2021/05/17 05:24:46;;;;;;;;;;;;;;;13.95;70.45;99306.84;2060117;28;20287;-84
2021/05/17 05:26:57;;;;;;;;;;;;;;;13.84;71.19;99324.97;2064913;28;19961;-84
2021/05/17 05:27:59;;;;;;;;;;;;;;;13.52;72.25;99322.41;2067387;28;19914;-85
2021/05/17 05:32:22;;;;;;;;;;;;;;;12.26;77.85;99330.84;2064533;28;19921;-85
2021/05/17 05:33:22;;;;;;;;;;;;;;;12.01;78.66;99337.28;2064678;28;20016;-84
2021/05/17 05:34:25;;;;;;;;;;;;;;;11.92;79.33;99335.97;2064526;28;19917;-85